createdAt,value
2018-08-03T00:01:49.298Z,96173.00
2018-08-03T00:07:18.764Z,96174.00
2018-08-03T00:12:48.076Z,96167.00
2018-08-03T00:18:17.478Z,96161.00
2018-08-03T00:23:47.827Z,96156.00
2018-08-03T00:29:17.143Z,96158.00
2018-08-03T00:34:47.080Z,96153.00
2018-08-03T00:40:18.619Z,96153.00
2018-08-03T00:45:49.394Z,96150.00
2018-08-03T00:51:18.810Z,96148.00
2018-08-03T00:56:48.164Z,96142.00
2018-08-03T01:02:17.880Z,96143.00
2018-08-03T01:07:47.163Z,96148.00
2018-08-03T01:13:16.560Z,96147.00
2018-08-03T01:18:45.904Z,96144.00
2018-08-03T01:24:15.267Z,96154.00
2018-08-03T01:29:44.588Z,96156.00
2018-08-03T01:35:14.056Z,96148.00
2018-08-03T01:40:43.341Z,96136.00
2018-08-03T01:46:12.662Z,96129.00
2018-08-03T01:51:43.994Z,96144.00
2018-08-03T01:57:13.245Z,96126.00
2018-08-03T02:02:42.512Z,96123.00
2018-08-03T02:08:11.792Z,96125.00
2018-08-03T02:13:41.082Z,96140.00
2018-08-03T02:19:10.402Z,96133.00
2018-08-03T02:24:39.789Z,96128.00
2018-08-03T02:30:09.102Z,96131.00
2018-08-03T02:35:39.414Z,96131.00
2018-08-03T02:41:08.716Z,96126.00
2018-08-03T02:46:38.109Z,96137.00
2018-08-03T02:52:07.418Z,96139.00
2018-08-03T02:57:36.693Z,96143.00
2018-08-03T03:03:06.791Z,96136.00
2018-08-03T03:08:36.079Z,96131.00
2018-08-03T03:14:05.760Z,96139.00
2018-08-03T03:19:35.253Z,96122.00
2018-08-03T03:25:04.570Z,96127.00
2018-08-03T03:30:33.963Z,96118.00
2018-08-03T03:36:03.334Z,96117.00
2018-08-03T03:41:32.656Z,96114.00
2018-08-03T03:47:01.904Z,96104.00
2018-08-03T03:52:32.218Z,96108.00
2018-08-03T03:58:01.520Z,96101.00
2018-08-03T04:03:31.711Z,96110.00
2018-08-03T04:09:01.012Z,96102.00
2018-08-03T04:14:30.324Z,96106.00
2018-08-03T04:19:59.644Z,96115.00
2018-08-03T04:25:28.928Z,96119.00
2018-08-03T04:30:58.271Z,96127.00
2018-08-03T04:36:27.604Z,96141.00
2018-08-03T04:41:56.895Z,96157.00
2018-08-03T04:47:26.189Z,96166.00
2018-08-03T04:52:55.580Z,96165.00
2018-08-03T04:58:24.901Z,96163.00
2018-08-03T05:03:54.216Z,96158.00
2018-08-03T05:09:23.597Z,96161.00
2018-08-03T05:14:53.125Z,96152.00
2018-08-03T05:20:22.543Z,96157.00
2018-08-03T05:25:51.896Z,96157.00
2018-08-03T05:31:21.443Z,96156.00
2018-08-03T05:36:53.179Z,96165.00
2018-08-03T05:42:22.542Z,96166.00
2018-08-03T05:47:51.889Z,96175.00
2018-08-03T05:53:21.398Z,96172.00
2018-08-03T05:58:50.797Z,96159.00
2018-08-03T06:04:20.157Z,96160.00
2018-08-03T06:09:49.421Z,96166.00
2018-08-03T06:15:18.765Z,96166.00
2018-08-03T06:20:48.205Z,96168.00
2018-08-03T06:26:17.469Z,96171.00
2018-08-03T06:31:46.787Z,96168.00
2018-08-03T06:37:16.027Z,96173.00
2018-08-03T06:42:45.350Z,96170.00
2018-08-03T06:48:14.622Z,96170.00
2018-08-03T06:53:44.262Z,96162.00
2018-08-03T06:59:13.516Z,96170.00
2018-08-03T07:04:42.708Z,96161.00
2018-08-03T07:10:12.012Z,96161.00
2018-08-03T07:15:41.233Z,96168.00
2018-08-03T07:21:11.758Z,96160.00
2018-08-03T07:26:40.697Z,96164.00
2018-08-03T07:32:11.072Z,96164.00
2018-08-03T07:37:40.336Z,96160.00
2018-08-03T07:43:09.858Z,96161.00
2018-08-03T07:48:39.169Z,96161.00
2018-08-03T07:54:08.428Z,96158.00
2018-08-03T07:59:37.811Z,96157.00
2018-08-03T08:05:07.389Z,96159.00
2018-08-03T08:10:36.607Z,96152.00
2018-08-03T08:16:05.887Z,96164.00
2018-08-03T08:21:35.666Z,96151.00
2018-08-03T08:27:05.009Z,96152.00
2018-08-03T08:32:34.304Z,96157.00
2018-08-03T08:38:03.603Z,96162.00
2018-08-03T08:43:33.224Z,96158.00
2018-08-03T08:49:03.004Z,96164.00
2018-08-03T08:54:32.300Z,96161.00
2018-08-03T09:00:01.515Z,96154.00
2018-08-03T09:05:30.901Z,96159.00
2018-08-03T09:11:00.717Z,96156.00
2018-08-03T09:16:30.134Z,96148.00
2018-08-03T09:21:59.495Z,96154.00
2018-08-03T09:27:28.725Z,96148.00
2018-08-03T09:32:57.973Z,96147.00
2018-08-03T09:38:27.225Z,96145.00
2018-08-03T09:43:56.523Z,96141.00
2018-08-03T09:49:25.907Z,96132.00
2018-08-03T09:54:55.239Z,96120.00
2018-08-03T10:00:29.639Z,96126.00
2018-08-03T10:05:59.083Z,96121.00
2018-08-03T10:11:28.418Z,96124.00
2018-08-03T10:16:58.291Z,96113.00
2018-08-03T10:22:28.383Z,96104.00
2018-08-03T10:27:57.781Z,96103.00
2018-08-03T10:33:27.099Z,96100.00
2018-08-03T10:38:56.464Z,96102.00
2018-08-03T10:44:25.756Z,96095.00
2018-08-03T10:49:55.238Z,96086.00
2018-08-03T10:55:24.528Z,96078.00
2018-08-03T11:00:53.794Z,96079.00
2018-08-03T11:06:23.170Z,96083.00
2018-08-03T11:11:52.585Z,96070.00
2018-08-03T11:17:22.040Z,96068.00
2018-08-03T11:22:51.479Z,96077.00
2018-08-03T11:28:20.835Z,96054.00
2018-08-03T11:33:50.151Z,96054.00
2018-08-03T11:39:19.480Z,96068.00
2018-08-03T11:44:48.784Z,96061.00
2018-08-03T11:50:18.108Z,96051.00
2018-08-03T11:55:47.455Z,96049.00
2018-08-03T12:01:16.656Z,96043.00
2018-08-03T12:06:45.671Z,96048.00
2018-08-03T12:12:15.796Z,96036.00
2018-08-03T12:17:45.866Z,96032.00
2018-08-03T12:23:15.222Z,96030.00
2018-08-03T12:28:44.398Z,96036.00
2018-08-03T12:34:13.689Z,96029.00
2018-08-03T12:39:42.966Z,96029.00
2018-08-03T12:45:12.253Z,96021.00
2018-08-03T12:50:41.573Z,96019.00
2018-08-03T12:56:10.828Z,96010.00
2018-08-03T13:01:40.070Z,96010.00
2018-08-03T13:07:09.292Z,96009.00
2018-08-03T13:12:38.613Z,96001.00
2018-08-03T13:18:07.861Z,96002.00
2018-08-03T13:23:56.515Z,96005.00
2018-08-03T13:29:25.966Z,96005.00
2018-08-03T13:34:55.341Z,96003.00
2018-08-03T13:40:24.735Z,95995.00
2018-08-03T13:45:54.056Z,95984.00
2018-08-03T13:51:23.486Z,95983.00
2018-08-03T13:56:52.911Z,95976.00
2018-08-03T14:02:24.624Z,95963.00
2018-08-03T14:07:53.949Z,95956.00
2018-08-03T14:13:26.314Z,95955.00
2018-08-03T14:18:56.453Z,95955.00
2018-08-03T14:24:25.861Z,95950.00
2018-08-03T14:29:55.527Z,95939.00
2018-08-03T14:35:25.894Z,95932.00
2018-08-03T14:40:55.316Z,95928.00
2018-08-03T14:46:24.731Z,95928.00
2018-08-03T14:51:54.160Z,95920.00
2018-08-03T14:57:23.540Z,95907.00
2018-08-03T15:02:52.991Z,95856.00
2018-08-03T15:08:23.482Z,95882.00
2018-08-03T15:13:52.953Z,95911.00
2018-08-03T15:19:22.369Z,95916.00
2018-08-03T15:24:51.836Z,95919.00
2018-08-03T15:30:21.175Z,95927.00
2018-08-03T15:35:52.218Z,95930.00
2018-08-03T15:41:21.570Z,95917.00
2018-08-03T15:46:52.585Z,95912.00
2018-08-03T15:52:22.841Z,95912.00
2018-08-03T15:57:55.401Z,95898.00
2018-08-03T16:03:25.034Z,95888.00
2018-08-03T16:08:54.596Z,95894.00
2018-08-03T16:14:24.023Z,95888.00
2018-08-03T16:19:53.584Z,95890.00
2018-08-03T16:25:22.989Z,95886.00
2018-08-03T16:30:52.213Z,95882.00
2018-08-03T16:36:21.667Z,95884.00
2018-08-03T16:41:51.287Z,95879.00
2018-08-03T16:47:20.683Z,95878.00
2018-08-03T16:52:50.113Z,95873.00
2018-08-03T16:58:19.579Z,95875.00
2018-08-03T17:03:49.692Z,95869.00
2018-08-03T17:09:19.214Z,95873.00
2018-08-03T17:14:50.659Z,95866.00
2018-08-03T17:20:20.115Z,95873.00
2018-08-03T17:25:49.457Z,95872.00
2018-08-03T17:31:19.947Z,95873.00
2018-08-03T17:36:50.344Z,95874.00
2018-08-03T17:42:19.730Z,95878.00
2018-08-03T17:47:49.000Z,95877.00
2018-08-03T17:53:18.227Z,95881.00
2018-08-03T17:58:48.749Z,95881.00
2018-08-03T18:04:18.218Z,95879.00
2018-08-03T18:09:47.531Z,95887.00
2018-08-03T18:15:16.912Z,95884.00
2018-08-03T18:20:47.027Z,95885.00
2018-08-03T18:26:16.454Z,95896.00
2018-08-03T18:31:45.692Z,95898.00
2018-08-03T18:37:14.896Z,95898.00
2018-08-03T18:42:44.303Z,95908.00
2018-08-03T18:48:13.581Z,95908.00
2018-08-03T18:53:42.843Z,95905.00
2018-08-03T18:59:12.163Z,95904.00
2018-08-03T19:04:41.550Z,95914.00
2018-08-03T19:10:11.021Z,95920.00
2018-08-03T19:15:40.379Z,95928.00
2018-08-03T19:21:09.652Z,95938.00
2018-08-03T19:26:38.944Z,95944.00
2018-08-03T19:32:08.245Z,95947.00
2018-08-03T19:37:37.459Z,95941.00
2018-08-03T19:43:06.879Z,95945.00
2018-08-03T19:48:36.119Z,95947.00
2018-08-03T19:54:05.435Z,95944.00
2018-08-03T19:59:34.895Z,95942.00
2018-08-03T20:05:04.296Z,95938.00
2018-08-03T20:10:33.586Z,95942.00
2018-08-03T20:16:02.961Z,95936.00
2018-08-03T20:21:32.283Z,95935.00
2018-08-03T20:27:01.589Z,95940.00
2018-08-03T20:32:30.938Z,95940.00
2018-08-03T20:38:00.229Z,95939.00
2018-08-03T20:43:29.553Z,95943.00
2018-08-03T20:48:58.981Z,95939.00
2018-08-03T20:54:28.492Z,95934.00
2018-08-03T20:59:57.818Z,95944.00
2018-08-03T21:05:26.972Z,95933.00
2018-08-03T21:10:56.441Z,95937.00
2018-08-03T21:16:25.818Z,95929.00
2018-08-03T21:21:55.092Z,95937.00
2018-08-03T21:27:24.539Z,95932.00
2018-08-03T21:32:54.173Z,95930.00
2018-08-03T21:38:23.908Z,95925.00
2018-08-03T21:43:53.394Z,95923.00
2018-08-03T21:49:22.736Z,95930.00
2018-08-03T21:54:52.362Z,95935.00
2018-08-03T22:00:22.952Z,95939.00
2018-08-03T22:05:52.606Z,95935.00
2018-08-03T22:11:21.968Z,95929.00
2018-08-03T22:16:51.359Z,95936.00
2018-08-03T22:22:20.868Z,95930.00
2018-08-03T22:27:50.413Z,95933.00
2018-08-03T22:33:20.041Z,95933.00
2018-08-03T22:38:49.496Z,95922.00
2018-08-03T22:44:18.860Z,95923.00
2018-08-03T22:49:48.195Z,95919.00
2018-08-03T22:55:17.433Z,95921.00
2018-08-03T23:00:46.740Z,95919.00
2018-08-03T23:06:16.021Z,95909.00
2018-08-03T23:11:45.283Z,95911.00
2018-08-03T23:17:14.521Z,95906.00
2018-08-03T23:22:43.826Z,95900.00
2018-08-03T23:28:13.055Z,95892.00
2018-08-03T23:33:42.333Z,95894.00
2018-08-03T23:39:11.682Z,95891.00
2018-08-03T23:44:40.902Z,95887.00
2018-08-03T23:50:19.500Z,95882.00
2018-08-03T23:55:48.856Z,95878.00
